createdAt,value
2023-06-12T00:00:09.507Z,96920.72
2023-06-12T00:02:38.695Z,96923.03
2023-06-12T00:05:06.856Z,96924.50
2023-06-12T00:07:36.617Z,96919.97
2023-06-12T00:10:05.045Z,96925.94
2023-06-12T00:12:32.677Z,96923.13
2023-06-12T00:15:00.782Z,96913.19
2023-06-12T00:17:29.081Z,96897.91
2023-06-12T00:19:58.004Z,96917.13
2023-06-12T00:22:25.652Z,96922.88
2023-06-12T00:24:53.211Z,96918.00
2023-06-12T00:27:21.297Z,96928.06
2023-06-12T00:29:48.815Z,96921.50
2023-06-12T00:32:16.457Z,96932.38
2023-06-12T00:34:44.162Z,96931.06
2023-06-12T00:37:14.001Z,96927.44
2023-06-12T00:39:41.598Z,96925.66
2023-06-12T00:42:09.608Z,96918.97
2023-06-12T00:44:37.447Z,96921.47
2023-06-12T00:47:05.571Z,96929.88
2023-06-12T00:49:33.239Z,96922.34
2023-06-12T00:52:01.165Z,96922.16
2023-06-12T00:54:30.394Z,96917.88
2023-06-12T00:56:58.738Z,96920.13
2023-06-12T00:59:26.856Z,96917.28
2023-06-12T01:01:54.477Z,96918.34
2023-06-12T01:04:23.331Z,96901.16
2023-06-12T01:06:57.427Z,96921.19
2023-06-12T01:09:31.564Z,96913.66
2023-06-12T01:11:59.288Z,96917.94
2023-06-12T01:14:27.781Z,96918.78
2023-06-12T01:16:59.684Z,96916.34
2023-06-12T01:19:27.394Z,96915.75
2023-06-12T01:22:00.595Z,96921.66
2023-06-12T01:24:46.840Z,96907.38
2023-06-12T01:27:42.627Z,96921.88
2023-06-12T01:30:38.853Z,96927.19
2023-06-12T01:33:09.801Z,96924.94
2023-06-12T01:35:38.959Z,96923.31
2023-06-12T01:38:09.722Z,96936.81
2023-06-12T01:40:39.706Z,96927.41
2023-06-12T01:43:07.288Z,96928.63
2023-06-12T01:45:36.011Z,96928.41
2023-06-12T01:48:03.625Z,96930.66
2023-06-12T01:50:32.599Z,96924.31
2023-06-12T01:53:00.152Z,96932.72
2023-06-12T01:55:28.822Z,96921.66
2023-06-12T01:57:56.363Z,96931.28
2023-06-12T02:00:23.920Z,96928.63
2023-06-12T02:02:54.874Z,96924.94
2023-06-12T02:05:23.028Z,96913.25
2023-06-12T02:07:51.988Z,96929.00
2023-06-12T02:10:19.529Z,96920.44
2023-06-12T02:12:47.233Z,96924.09
2023-06-12T02:15:14.781Z,96911.81
2023-06-12T02:17:42.835Z,96929.00
2023-06-12T02:20:11.191Z,96933.91
2023-06-12T02:22:39.723Z,96939.63
2023-06-12T02:25:09.539Z,96936.78
2023-06-12T02:27:37.080Z,96942.25
2023-06-12T02:30:05.473Z,96938.56
2023-06-12T02:32:34.853Z,96930.22
2023-06-12T02:35:03.488Z,96936.53
2023-06-12T02:37:33.219Z,96942.03
2023-06-12T02:40:00.934Z,96939.16
2023-06-12T02:42:29.794Z,96940.00
2023-06-12T02:44:57.359Z,96938.56
2023-06-12T02:47:24.900Z,96928.72
2023-06-12T02:49:52.422Z,96932.41
2023-06-12T02:52:19.995Z,96940.16
2023-06-12T02:54:48.041Z,96927.81
2023-06-12T02:57:16.950Z,96941.09
2023-06-12T02:59:46.179Z,96933.53
2023-06-12T03:02:13.715Z,96936.56
2023-06-12T03:04:41.247Z,96941.47
2023-06-12T03:07:08.797Z,96936.78
2023-06-12T03:09:36.435Z,96944.34
2023-06-12T03:12:04.141Z,96938.81
2023-06-12T03:14:33.562Z,96938.03
2023-06-12T03:17:02.993Z,96930.88
2023-06-12T03:19:30.630Z,96934.53
2023-06-12T03:21:58.164Z,96939.03
2023-06-12T03:24:28.238Z,96945.16
2023-06-12T03:26:56.197Z,96934.75
2023-06-12T03:29:23.761Z,96948.84
2023-06-12T03:31:51.380Z,96936.38
2023-06-12T03:34:20.246Z,96942.09
2023-06-12T03:36:47.810Z,96941.50
2023-06-12T03:39:15.808Z,96948.47
2023-06-12T03:41:53.294Z,96934.94
2023-06-12T03:44:20.889Z,96938.28
2023-06-12T03:46:48.526Z,96939.91
2023-06-12T03:49:16.216Z,96948.69
2023-06-12T03:51:45.151Z,96935.38
2023-06-12T03:54:13.024Z,96948.06
2023-06-12T03:56:42.615Z,96945.66
2023-06-12T03:59:10.188Z,96953.00
2023-06-12T04:01:40.116Z,96958.34
2023-06-12T04:04:07.825Z,96957.13
2023-06-12T04:06:41.803Z,96961.47
2023-06-12T04:09:13.862Z,96954.91
2023-06-12T04:11:41.496Z,96952.50
2023-06-12T04:14:09.419Z,96957.41
2023-06-12T04:16:37.121Z,96962.72
2023-06-12T04:19:04.824Z,96958.88
2023-06-12T04:21:33.933Z,96960.09
2023-06-12T04:24:02.449Z,96961.94
2023-06-12T04:26:32.600Z,96956.84
2023-06-12T04:29:04.274Z,96962.59
2023-06-12T04:31:32.238Z,96966.06
2023-06-12T04:34:01.494Z,96965.44
2023-06-12T04:36:29.094Z,96945.81
2023-06-12T04:38:57.783Z,96949.47
2023-06-12T04:41:29.064Z,96960.09
2023-06-12T04:44:00.187Z,96951.69
2023-06-12T04:46:29.148Z,96954.28
2023-06-12T04:48:57.168Z,96947.09
2023-06-12T04:51:25.698Z,96944.56
2023-06-12T04:53:54.296Z,96947.78
2023-06-12T04:56:22.759Z,96949.13
2023-06-12T04:58:50.757Z,96948.69
2023-06-12T05:01:23.238Z,96945.13
2023-06-12T05:03:51.359Z,96949.75
2023-06-12T05:06:19.161Z,96940.59
2023-06-12T05:08:46.713Z,96951.50
2023-06-12T05:11:14.298Z,96954.44
2023-06-12T05:13:42.809Z,96934.06
2023-06-12T05:16:10.354Z,96957.84
2023-06-12T05:18:39.602Z,96957.78
2023-06-12T05:21:07.873Z,96960.66
2023-06-12T05:23:35.962Z,96941.19
2023-06-12T05:26:04.193Z,96960.97
2023-06-12T05:28:38.269Z,96946.06
2023-06-12T05:31:06.561Z,96962.78
2023-06-12T05:33:34.525Z,96964.28
2023-06-12T05:36:03.453Z,96972.16
2023-06-12T05:38:31.749Z,96972.03
2023-06-12T05:40:59.737Z,96956.41
2023-06-12T05:43:28.070Z,96960.88
2023-06-12T05:45:55.615Z,96963.78
2023-06-12T05:48:23.254Z,96969.84
2023-06-12T05:50:50.803Z,96969.38
2023-06-12T05:53:19.773Z,96963.72
2023-06-12T05:55:47.566Z,96963.41
2023-06-12T05:58:15.086Z,96963.22
2023-06-12T06:00:43.867Z,96963.25
2023-06-12T06:03:11.490Z,96972.06
2023-06-12T06:05:39.045Z,96966.81
2023-06-12T06:08:07.458Z,96964.25
2023-06-12T06:10:36.398Z,96963.47
2023-06-12T06:13:04.061Z,96966.72
2023-06-12T06:15:31.595Z,96964.97
2023-06-12T06:17:59.351Z,96961.47
2023-06-12T06:20:27.591Z,96974.16
2023-06-12T06:22:55.313Z,96975.09
2023-06-12T06:25:24.161Z,96974.22
2023-06-12T06:27:53.068Z,96981.56
2023-06-12T06:30:20.654Z,96986.38
2023-06-12T06:32:48.496Z,96985.41
2023-06-12T06:35:16.204Z,96993.47
2023-06-12T06:37:43.780Z,96989.53
2023-06-12T06:40:12.162Z,96974.13
2023-06-12T06:42:39.715Z,96993.16
2023-06-12T06:45:09.845Z,96994.69
2023-06-12T06:47:38.171Z,96996.25
2023-06-12T06:50:06.901Z,97000.50
2023-06-12T06:52:34.510Z,96994.34
2023-06-12T06:55:02.084Z,96991.94
2023-06-12T06:57:29.656Z,96995.91
2023-06-12T06:59:57.584Z,96994.19
2023-06-12T07:02:26.651Z,96990.22
2023-06-12T07:04:54.690Z,96998.69
2023-06-12T07:07:22.386Z,96987.03
2023-06-12T07:09:49.958Z,96986.31
2023-06-12T07:12:17.593Z,96985.56
2023-06-12T07:14:45.168Z,96994.47
2023-06-12T07:17:12.766Z,96988.81
2023-06-12T07:19:41.676Z,96988.00
2023-06-12T07:22:09.278Z,96999.22
2023-06-12T07:24:36.889Z,96997.19
2023-06-12T07:27:05.022Z,96993.59
2023-06-12T07:29:33.452Z,96988.84
2023-06-12T07:32:01.218Z,96992.28
2023-06-12T07:34:28.793Z,96986.97
2023-06-12T07:36:59.726Z,96990.72
2023-06-12T07:39:27.382Z,96988.13
2023-06-12T07:41:55.000Z,96986.56
2023-06-12T07:44:22.623Z,96981.78
2023-06-12T07:46:50.244Z,96982.72
2023-06-12T07:49:18.078Z,96983.31
2023-06-12T07:51:53.837Z,96980.75
2023-06-12T07:54:23.118Z,96988.28
2023-06-12T07:56:52.080Z,96980.94
2023-06-12T07:59:20.128Z,96968.28
2023-06-12T08:01:47.819Z,96977.44
2023-06-12T08:04:15.402Z,96971.38
2023-06-12T08:06:43.423Z,96979.09
2023-06-12T08:09:11.334Z,96970.56
2023-06-12T08:11:40.382Z,96977.66
2023-06-12T08:14:08.181Z,96977.66
2023-06-12T08:16:35.764Z,96973.28
2023-06-12T08:19:03.352Z,96981.56
2023-06-12T08:21:31.173Z,96974.28
2023-06-12T08:23:58.976Z,96974.38
2023-06-12T08:26:26.603Z,96975.25
2023-06-12T08:28:56.114Z,96976.50
2023-06-12T08:31:24.927Z,96991.03
2023-06-12T08:33:52.694Z,96980.31
2023-06-12T08:36:20.582Z,96982.38
2023-06-12T08:38:48.450Z,96988.38
2023-06-12T08:41:19.269Z,96980.56
2023-06-12T08:43:48.020Z,96968.75
2023-06-12T08:46:18.733Z,96971.47
2023-06-12T08:48:47.629Z,96983.00
2023-06-12T08:51:16.293Z,96981.66
2023-06-12T08:53:45.104Z,96974.84
2023-06-12T08:56:13.236Z,96968.28
2023-06-12T08:58:40.914Z,96971.22
2023-06-12T09:01:09.576Z,96956.09
2023-06-12T09:03:39.307Z,96964.69
2023-06-12T09:06:10.353Z,96974.09
2023-06-12T09:08:39.855Z,96974.28
2023-06-12T09:11:07.455Z,96960.31
2023-06-12T09:13:42.235Z,96970.84
2023-06-12T09:16:12.368Z,96968.16
2023-06-12T09:18:51.217Z,96957.84
2023-06-12T09:21:20.456Z,96965.75
2023-06-12T09:23:51.688Z,96972.72
2023-06-12T09:26:23.119Z,96973.28
2023-06-12T09:28:54.695Z,96968.69
2023-06-12T09:31:23.389Z,96969.31
2023-06-12T09:33:54.367Z,96982.56
2023-06-12T09:36:22.673Z,96980.41
2023-06-12T09:38:51.474Z,96973.13
2023-06-12T09:41:22.909Z,96977.69
2023-06-12T09:43:53.295Z,96968.78
2023-06-12T09:46:26.201Z,96964.25
2023-06-12T09:48:58.470Z,96958.31
2023-06-12T09:51:26.298Z,96962.88
2023-06-12T09:53:56.275Z,96965.63
2023-06-12T09:56:24.852Z,96958.34
2023-06-12T09:58:53.041Z,96963.16
2023-06-12T10:01:22.416Z,96957.53
2023-06-12T10:03:53.718Z,96954.31
2023-06-12T10:06:24.817Z,96944.34
2023-06-12T10:08:54.518Z,96945.13
2023-06-12T10:11:22.502Z,96933.53
2023-06-12T10:13:51.381Z,96937.66
2023-06-12T10:16:19.827Z,96944.16
2023-06-12T10:18:47.977Z,96944.69
2023-06-12T10:21:15.676Z,96949.56
2023-06-12T10:23:45.069Z,96943.63
2023-06-12T10:26:13.072Z,96938.75
2023-06-12T10:28:40.620Z,96934.69
2023-06-12T10:31:15.407Z,96942.53
2023-06-12T10:34:00.037Z,96933.34
2023-06-12T10:36:30.437Z,96934.44
2023-06-12T10:39:05.222Z,96932.53
2023-06-12T10:41:33.602Z,96927.94
2023-06-12T10:44:01.538Z,96935.53
2023-06-12T10:46:45.767Z,96926.56
2023-06-12T10:49:14.435Z,96915.22
2023-06-12T10:51:49.475Z,96915.25
2023-06-12T10:54:26.338Z,96910.38
2023-06-12T10:57:04.497Z,96913.84
2023-06-12T10:59:35.272Z,96908.09
2023-06-12T11:02:03.229Z,96920.06
2023-06-12T11:04:37.602Z,96918.22
2023-06-12T11:07:06.379Z,96903.91
2023-06-12T11:09:41.289Z,96890.41
2023-06-12T11:12:09.739Z,96900.94
2023-06-12T11:14:37.357Z,96891.69
2023-06-12T11:17:05.607Z,96893.31
2023-06-12T11:19:33.738Z,96897.16
2023-06-12T11:22:04.712Z,96887.91
2023-06-12T11:24:32.515Z,96887.94
2023-06-12T11:27:02.390Z,96890.03
2023-06-12T11:29:48.524Z,96877.53
2023-06-12T11:32:21.152Z,96883.38
2023-06-12T11:34:48.781Z,96872.78
2023-06-12T11:37:17.568Z,96876.16
2023-06-12T11:42:17.660Z,96871.81
2023-06-12T11:44:45.340Z,96865.97
2023-06-12T11:49:43.936Z,96865.78
2023-06-12T11:52:12.280Z,96872.56
2023-06-12T11:57:32.443Z,96874.66
2023-06-12T12:00:00.688Z,96866.09
2023-06-12T12:02:34.072Z,96873.22
2023-06-12T12:05:06.903Z,96867.03
2023-06-12T12:07:34.538Z,96860.94
2023-06-12T12:10:10.381Z,96857.63
2023-06-12T12:12:46.778Z,96853.31
2023-06-12T12:15:15.509Z,96857.81
2023-06-12T12:17:44.335Z,96860.22
2023-06-12T12:20:16.462Z,96859.53
2023-06-12T12:22:44.925Z,96843.56
2023-06-12T12:25:16.820Z,96836.66
2023-06-12T12:27:46.775Z,96843.19
2023-06-12T12:30:17.149Z,96845.28
2023-06-12T12:32:45.930Z,96837.91
2023-06-12T12:35:14.569Z,96836.38
2023-06-12T12:37:42.211Z,96842.38
2023-06-12T12:40:11.842Z,96847.84
2023-06-12T12:42:40.965Z,96834.47
2023-06-12T12:45:11.411Z,96840.69
2023-06-12T12:47:41.380Z,96830.84
2023-06-12T12:50:20.188Z,96819.63
2023-06-12T12:52:50.587Z,96828.50
2023-06-12T12:55:18.645Z,96829.78
2023-06-12T12:57:49.620Z,96837.41
2023-06-12T13:00:20.604Z,96830.88
2023-06-12T13:02:48.339Z,96819.50
2023-06-12T13:05:17.192Z,96801.69
2023-06-12T13:07:50.053Z,96811.38
2023-06-12T13:10:18.591Z,96794.75
2023-06-12T13:12:46.382Z,96813.66
2023-06-12T13:15:13.941Z,96819.75
2023-06-12T13:17:42.911Z,96810.03
2023-06-12T13:20:11.326Z,96819.38
2023-06-12T13:22:39.236Z,96821.84
2023-06-12T13:25:07.629Z,96812.41
2023-06-12T13:27:35.192Z,96807.41
2023-06-12T13:30:03.689Z,96804.28
2023-06-12T13:32:31.660Z,96805.03
2023-06-12T13:35:00.654Z,96805.91
2023-06-12T13:37:28.609Z,96816.22
2023-06-12T13:39:56.193Z,96807.69
2023-06-12T13:42:24.165Z,96793.19
2023-06-12T13:44:51.939Z,96800.44
2023-06-12T13:47:20.266Z,96800.72
2023-06-12T13:49:48.030Z,96802.56
2023-06-12T13:52:17.019Z,96785.44
2023-06-12T13:54:44.566Z,96813.78
2023-06-12T13:57:12.153Z,96806.81
2023-06-12T13:59:39.875Z,96805.78
2023-06-12T14:02:10.071Z,96792.56
2023-06-12T14:04:37.810Z,96813.13
2023-06-12T14:07:06.074Z,96801.31
2023-06-12T14:09:35.138Z,96813.38
2023-06-12T14:12:02.703Z,96806.84
2023-06-12T14:14:30.576Z,96812.91
2023-06-12T14:16:58.130Z,96793.56
2023-06-12T14:19:25.728Z,96803.28
2023-06-12T14:21:53.309Z,96799.31
2023-06-12T14:24:35.722Z,96796.72
2023-06-12T14:27:08.335Z,96801.25
2023-06-12T14:29:36.298Z,96795.19
2023-06-12T14:32:04.218Z,96800.72
2023-06-12T14:34:31.908Z,96795.63
2023-06-12T14:36:59.503Z,96797.25
2023-06-12T14:39:27.440Z,96790.31
2023-06-12T14:41:55.012Z,96790.28
2023-06-12T14:44:23.904Z,96800.44
2023-06-12T14:46:51.510Z,96787.31
2023-06-12T14:49:19.111Z,96785.81
2023-06-12T14:51:46.867Z,96790.41
2023-06-12T14:54:14.479Z,96800.56
2023-06-12T14:56:42.103Z,96797.66
2023-06-12T14:59:09.692Z,96785.78
2023-06-12T15:01:38.653Z,96791.34
2023-06-12T15:04:06.787Z,96797.38
2023-06-12T15:06:34.502Z,96783.41
2023-06-12T15:09:02.129Z,96795.28
2023-06-12T15:11:29.731Z,96796.25
2023-06-12T15:13:57.317Z,96784.22
2023-06-12T15:16:25.048Z,96782.53
2023-06-12T15:18:54.116Z,96792.31
2023-06-12T15:21:22.199Z,96795.84
2023-06-12T15:23:49.904Z,96781.19
2023-06-12T15:26:17.644Z,96783.50
2023-06-12T15:28:45.312Z,96782.16
2023-06-12T15:31:13.512Z,96785.16
2023-06-12T15:33:41.032Z,96779.19
2023-06-12T15:36:11.563Z,96771.84
2023-06-12T15:38:40.400Z,96773.88
2023-06-12T15:41:11.165Z,96773.63
2023-06-12T15:43:39.509Z,96767.81
2023-06-12T15:46:08.883Z,96767.25
2023-06-12T15:48:38.814Z,96768.81
2023-06-12T15:51:07.463Z,96757.75
2023-06-12T15:53:36.402Z,96768.81
2023-06-12T15:56:04.250Z,96769.66
2023-06-12T15:58:33.056Z,96774.78
2023-06-12T16:01:00.673Z,96763.31
2023-06-12T16:03:28.873Z,96768.25
2023-06-12T16:05:56.625Z,96771.66
2023-06-12T16:08:24.229Z,96773.50
2023-06-12T16:10:53.214Z,96772.00
2023-06-12T16:13:20.883Z,96759.63
2023-06-12T16:15:48.496Z,96773.47
2023-06-12T16:18:17.977Z,96768.63
2023-06-12T16:20:45.594Z,96766.44
2023-06-12T16:23:14.097Z,96768.63
2023-06-12T16:25:42.032Z,96757.59
2023-06-12T16:28:11.438Z,96768.63
2023-06-12T16:30:39.028Z,96773.78
2023-06-12T16:33:07.860Z,96773.50
2023-06-12T16:35:35.499Z,96774.03
2023-06-12T16:38:03.726Z,96775.41
2023-06-12T16:40:31.280Z,96767.03
2023-06-12T16:42:59.498Z,96776.22
2023-06-12T16:45:28.623Z,96773.50
2023-06-12T16:47:56.395Z,96770.53
2023-06-12T16:50:24.240Z,96783.22
2023-06-12T16:52:51.981Z,96781.59
2023-06-12T16:55:19.736Z,96755.16
2023-06-12T16:57:47.307Z,96781.03
2023-06-12T17:00:16.227Z,96775.63
2023-06-12T17:02:47.555Z,96771.88
2023-06-12T17:05:15.603Z,96781.03
2023-06-12T17:07:43.578Z,96779.13
2023-06-12T17:10:13.361Z,96778.81
2023-06-12T17:12:41.319Z,96779.09
2023-06-12T17:15:10.502Z,96772.00
2023-06-12T17:17:38.371Z,96776.84
2023-06-12T17:20:09.228Z,96771.13
2023-06-12T17:22:36.800Z,96779.22
2023-06-12T17:25:04.752Z,96769.25
2023-06-12T17:27:32.347Z,96779.19
2023-06-12T17:29:59.879Z,96773.25
2023-06-12T17:32:27.594Z,96773.53
2023-06-12T17:34:55.203Z,96775.63
2023-06-12T17:37:24.120Z,96769.69
2023-06-12T17:39:51.789Z,96754.00
2023-06-12T17:42:19.431Z,96770.94
2023-06-12T17:44:47.090Z,96762.22
2023-06-12T17:47:14.965Z,96748.94
2023-06-12T17:49:42.502Z,96771.31
2023-06-12T17:52:10.221Z,96771.22
2023-06-12T17:54:39.239Z,96776.06
2023-06-12T17:57:07.313Z,96772.47
2023-06-12T17:59:36.071Z,96779.72
2023-06-12T18:02:03.763Z,96778.06
2023-06-12T18:04:31.402Z,96779.34
2023-06-12T18:06:59.003Z,96781.44
2023-06-12T18:09:26.642Z,96775.69
2023-06-12T18:11:56.543Z,96782.66
2023-06-12T18:14:24.170Z,96778.31
2023-06-12T18:16:51.801Z,96777.91
2023-06-12T18:19:19.513Z,96775.28
2023-06-12T18:21:47.304Z,96779.56
2023-06-12T18:24:18.150Z,96783.41
2023-06-12T18:26:45.905Z,96775.88
2023-06-12T18:29:15.786Z,96776.44
2023-06-12T18:31:43.632Z,96778.53
2023-06-12T18:34:11.909Z,96770.06
2023-06-12T18:36:39.486Z,96770.13
2023-06-12T18:39:07.020Z,96772.81
2023-06-12T18:41:34.600Z,96783.53
2023-06-12T18:44:02.958Z,96785.50
2023-06-12T18:46:31.896Z,96784.63
2023-06-12T18:48:59.490Z,96790.56
2023-06-12T18:51:27.413Z,96790.22
2023-06-12T18:53:54.992Z,96793.72
2023-06-12T18:56:22.572Z,96797.44
2023-06-12T18:58:50.257Z,96797.69
2023-06-12T19:01:17.927Z,96800.50
2023-06-12T19:03:47.702Z,96803.06
2023-06-12T19:06:15.545Z,96803.69
2023-06-12T19:08:43.939Z,96801.91
2023-06-12T19:11:11.556Z,96805.63
2023-06-12T19:13:39.283Z,96808.31
2023-06-12T19:16:07.308Z,96808.69
2023-06-12T19:18:34.937Z,96810.19
2023-06-12T19:21:03.915Z,96811.00
2023-06-12T19:23:31.537Z,96810.09
2023-06-12T19:25:59.074Z,96813.19
2023-06-12T19:28:27.620Z,96816.00
2023-06-12T19:30:55.356Z,96815.41
2023-06-12T19:33:22.958Z,96816.25
2023-06-12T19:35:51.065Z,96817.41
2023-06-12T19:38:20.085Z,96819.59
2023-06-12T19:40:48.648Z,96822.84
2023-06-12T19:43:16.226Z,96825.91
2023-06-12T19:45:45.214Z,96804.03
2023-06-12T19:48:13.410Z,96829.63
2023-06-12T19:50:41.686Z,96806.22
2023-06-12T19:53:09.309Z,96829.81
2023-06-12T19:55:38.230Z,96826.69
2023-06-12T19:58:05.838Z,96826.69
2023-06-12T20:00:33.407Z,96826.56
2023-06-12T20:03:00.996Z,96826.09
2023-06-12T20:05:28.632Z,96828.19
2023-06-12T20:07:56.294Z,96823.91
2023-06-12T20:10:24.096Z,96821.91
2023-06-12T20:12:53.110Z,96822.94
2023-06-12T20:15:20.751Z,96820.53
2023-06-12T20:17:48.363Z,96821.09
2023-06-12T20:20:16.078Z,96833.31
2023-06-12T20:22:44.583Z,96824.03
2023-06-12T20:25:12.450Z,96818.41
2023-06-12T20:27:40.263Z,96820.88
2023-06-12T20:30:10.650Z,96818.66
2023-06-12T20:32:38.493Z,96818.31
2023-06-12T20:35:06.796Z,96823.28
2023-06-12T20:37:36.391Z,96819.69
2023-06-12T20:40:06.512Z,96822.59
2023-06-12T20:42:34.156Z,96824.69
2023-06-12T20:45:01.774Z,96818.06
2023-06-12T20:47:30.769Z,96820.16
2023-06-12T20:49:58.409Z,96821.09
2023-06-12T20:52:25.978Z,96823.97
2023-06-12T20:54:53.564Z,96824.56
2023-06-12T20:57:21.363Z,96821.88
2023-06-12T20:59:49.240Z,96810.22
2023-06-12T21:02:16.805Z,96825.34
2023-06-12T21:04:48.035Z,96827.44
2023-06-12T21:07:15.666Z,96831.63
2023-06-12T21:09:43.642Z,96837.41
2023-06-12T21:12:12.445Z,96828.66
2023-06-12T21:14:40.749Z,96831.56
2023-06-12T21:17:08.404Z,96834.25
2023-06-12T21:19:36.130Z,96823.72
2023-06-12T21:22:06.433Z,96831.38
2023-06-12T21:24:34.109Z,96843.69
2023-06-12T21:27:02.380Z,96839.84
2023-06-12T21:29:31.266Z,96839.91
2023-06-12T21:31:59.184Z,96841.16
2023-06-12T21:34:26.893Z,96849.50
2023-06-12T21:37:00.287Z,96846.34
2023-06-12T21:39:42.192Z,96850.84
2023-06-12T21:42:10.216Z,96853.00
2023-06-12T21:44:37.847Z,96850.78
2023-06-12T21:47:06.243Z,96860.41
2023-06-12T21:49:33.776Z,96853.09
2023-06-12T21:52:01.469Z,96853.94
2023-06-12T21:54:28.999Z,96854.25
2023-06-12T21:56:57.876Z,96853.75
2023-06-12T21:59:25.420Z,96849.66
2023-06-12T22:01:54.114Z,96849.38
2023-06-12T22:04:22.007Z,96854.69
2023-06-12T22:06:49.686Z,96841.81
2023-06-12T22:09:17.422Z,96829.78
2023-06-12T22:11:45.563Z,96825.03
2023-06-12T22:14:14.654Z,96848.78
2023-06-12T22:16:43.104Z,96845.78
2023-06-12T22:19:10.812Z,96846.22
2023-06-12T22:21:38.489Z,96845.91
2023-06-12T22:24:07.191Z,96838.38
2023-06-12T22:26:34.828Z,96849.25
2023-06-12T22:29:02.361Z,96836.97
2023-06-12T22:31:31.389Z,96840.13
2023-06-12T22:33:59.055Z,96841.91
2023-06-12T22:36:26.621Z,96833.72
2023-06-12T22:38:54.164Z,96837.81
2023-06-12T22:41:21.868Z,96832.56
2023-06-12T22:43:49.443Z,96838.34
2023-06-12T22:46:17.114Z,96844.94
2023-06-12T22:48:46.040Z,96840.47
2023-06-12T22:51:13.850Z,96842.94
2023-06-12T22:53:41.518Z,96837.63
2023-06-12T22:56:09.086Z,96837.06
2023-06-12T22:58:36.701Z,96833.81
2023-06-12T23:01:04.261Z,96833.06
2023-06-12T23:03:31.845Z,96831.44
2023-06-12T23:06:01.433Z,96823.28
2023-06-12T23:08:29.863Z,96825.50
2023-06-12T23:10:59.374Z,96823.47
2023-06-12T23:13:27.750Z,96806.97
2023-06-12T23:15:55.482Z,96827.66
2023-06-12T23:18:25.316Z,96821.56
2023-06-12T23:20:52.923Z,96826.88
2023-06-12T23:23:22.596Z,96834.66
2023-06-12T23:25:55.516Z,96833.28
2023-06-12T23:28:24.183Z,96826.50
2023-06-12T23:30:52.791Z,96824.28
2023-06-12T23:33:20.756Z,96827.59
2023-06-12T23:35:49.814Z,96823.69
2023-06-12T23:38:17.603Z,96824.53
2023-06-12T23:40:46.561Z,96821.72
2023-06-12T23:43:15.066Z,96821.31
2023-06-12T23:45:42.747Z,96820.31
2023-06-12T23:48:10.868Z,96820.91
2023-06-12T23:50:38.644Z,96820.28
2023-06-12T23:53:07.382Z,96824.81
2023-06-12T23:55:35.028Z,96824.41
2023-06-12T23:58:05.369Z,96823.63
